Hauptseite
METAR-TAF:

METAR-TAF

Flughäfen :

Saragossa, Spanien

Flughafen Saragossa

Breite: 41-40N, Länge: 001-01W, Höhe: 263 m

Beobachtung

Neuester Wetterbericht von vor 23 Minuten, um 15:00 UTC
Wind 10 kt aus Ost/Südost, variierte zwischen Ost und Süd/Südost
Temperatur 23°C
Luftfeuchtigkeit 41%
Luftdruck 1018 hPa
Sichtweite 10 km oder mehr
keine Wolken unter 1500 m und keine Kumulonimbus oder Gewitterwolken

METAR: LEZG 211500Z 11010KT 080V150 CAVOK 23/09 Q1018

Zeit: 17:23 (15:23 UTC)

Prognose

Neuester Wetterbericht von vor 4 Stunden und 23 Minuten, um 11:00 UTC
Gültige Prognose vom 21 um 12 UTC bis 22 um 12 UTC
Wind 10 kt aus Ost/Südost
Sichtweite 10 km oder mehr
Leicht bewölkt in der Höhe von 4000 ft
Zeitweise
vom 21 um 20 UTC bis 22 um 09 UTC
Wind 5 kt aus Ost

TAF: LEZG 211100Z 2112/2212 11010KT 9999 FEW040 TX25/2113Z TN12/2206Z TEMPO 2120/2209 10005KT

Wetterbeobachtungen und Prognosen von mehr als 4000 Flughäfen (METAR und TAF Bericht).

Die verfügbaren Stationen werden durch gelbe und rote Markierungen auf der Karte dargestellt.

Führen Sie die Maus auf sie, um den Namen der Station zu sehen.

Darauf klicken, um die Beobachtung von Wetterbeobachtungen und Prognosen zu sehen.

Um die Karte zu ändern : klicken Sie auf den grünen Tasten mit einem schwarzen Kreuz Zum Vergrößern, auf den grünen Button mit einem Gedankenstrich zu verkleinern, oder auf die grünen Pfeile für benachbarte Karten.


METAR-TAF: